ADDS METAR Data INFO
IDs: Format: Raw Decoded Include TAF

Data at: 1806 UTC 12 Dec 2017

METAR for:KSNS (Salinas Muni, CA, US)
Text:KSNS 121753Z 12009KT 10SM CLR 13/M06 A3030 RMK AO2 SLP270 T01281061 10128 20050 50004
Temperature: 12.8°C ( 55°F)
Dewpoint: -6.1°C ( 21°F) [RH = 26%]
Pressure (altimeter):30.30 inches Hg (1026.2 mb) [Sea level pressure: 1027.0 mb]
Winds:from the ESE (120 degrees) at 10 MPH (9 knots; 4.6 m/s)
Visibility:10 or more sm (16+ km)
Ceiling:at least 12,000 feet AGL
Clouds:sky clear below 12,000 feet AGL
Text:KSNS 121653Z 11012KT 10SM CLR 10/M06 A3031 RMK AO2 SLP272 T01001061
Temperature: 10.0°C ( 50°F)
Dewpoint: -6.1°C ( 21°F) [RH = 32%]
Pressure (altimeter):30.31 inches Hg (1026.5 mb) [Sea level pressure: 1027.2 mb]
Winds:from the ESE (110 degrees) at 14 MPH (12 knots; 6.2 m/s)
Visibility:10 or more sm (16+ km)
Ceiling:at least 12,000 feet AGL
Clouds:sky clear below 12,000 feet AGL
Text:KSNS 121553Z 11007KT 10SM CLR 05/M07 A3030 RMK AO2 SLP270 T00501067
Temperature: 5.0°C ( 41°F)
Dewpoint: -6.7°C ( 20°F) [RH = 42%]
Pressure (altimeter):30.30 inches Hg (1026.2 mb) [Sea level pressure: 1027.0 mb]
Winds:from the ESE (110 degrees) at 8 MPH (7 knots; 3.6 m/s)
Visibility:10 or more sm (16+ km)
Ceiling:at least 12,000 feet AGL
Clouds:sky clear below 12,000 feet AGL
Text:KSNS 121453Z 09009KT 10SM CLR 06/M07 A3029 RMK AO2 SLP265 T00561072 53002
Temperature: 5.6°C ( 42°F)
Dewpoint: -7.2°C ( 19°F) [RH = 39%]
Pressure (altimeter):30.29 inches Hg (1025.8 mb) [Sea level pressure: 1026.5 mb]
Winds:from the E (90 degrees) at 10 MPH (9 knots; 4.6 m/s)
Visibility:10 or more sm (16+ km)
Ceiling:at least 12,000 feet AGL
Clouds:sky clear below 12,000 feet AGL
Text:KSNS 121353Z AUTO 10011KT 10SM CLR 07/M07 A3027 RMK AO2 SLP259 T00721067
Temperature: 7.2°C ( 45°F)
Dewpoint: -6.7°C ( 20°F) [RH = 36%]
Pressure (altimeter):30.27 inches Hg (1025.1 mb) [Sea level pressure: 1025.9 mb]
Winds:from the E (100 degrees) at 13 MPH (11 knots; 5.7 m/s)
Visibility:10 or more sm (16+ km)
Ceiling:at least 12,000 feet AGL
Clouds:sky clear below 12,000 feet AGL
QC Flag:automated observation with no human augmentation
Text:KSNS 121253Z AUTO 11011KT 10SM CLR 06/M07 A3027 RMK AO2 SLP260 T00611067
Temperature: 6.1°C ( 43°F)
Dewpoint: -6.7°C ( 20°F) [RH = 39%]
Pressure (altimeter):30.27 inches Hg (1025.1 mb) [Sea level pressure: 1026.0 mb]
Winds:from the ESE (110 degrees) at 13 MPH (11 knots; 5.7 m/s)
Visibility:10 or more sm (16+ km)
Ceiling:at least 12,000 feet AGL
Clouds:sky clear below 12,000 feet AGL
QC Flag:automated observation with no human augmentation
Text:KSNS 121153Z AUTO 11005KT 10SM CLR 06/M07 A3028 RMK AO2 SLP263 T00561067 10100 20056 58006
Temperature: 5.6°C ( 42°F)
Dewpoint: -6.7°C ( 20°F) [RH = 41%]
Pressure (altimeter):30.28 inches Hg (1025.5 mb) [Sea level pressure: 1026.3 mb]
Winds:from the ESE (110 degrees) at 6 MPH (5 knots; 2.6 m/s)
Visibility:10 or more sm (16+ km)
Ceiling:at least 12,000 feet AGL
Clouds:sky clear below 12,000 feet AGL
QC Flag:automated observation with no human augmentation
Text:KSNS 121053Z AUTO 10007KT 10SM CLR 07/M06 A3030 RMK AO2 SLP268 T00671056
Temperature: 6.7°C ( 44°F)
Dewpoint: -5.6°C ( 22°F) [RH = 41%]
Pressure (altimeter):30.30 inches Hg (1026.2 mb) [Sea level pressure: 1026.8 mb]
Winds:from the E (100 degrees) at 8 MPH (7 knots; 3.6 m/s)
Visibility:10 or more sm (16+ km)
Ceiling:at least 12,000 feet AGL
Clouds:sky clear below 12,000 feet AGL
QC Flag:automated observation with no human augmentation
Text:KSNS 120953Z AUTO 12006KT 10SM CLR 07/M05 A3030 RMK AO2 SLP269 T00671050
Temperature: 6.7°C ( 44°F)
Dewpoint: -5.0°C ( 23°F) [RH = 43%]
Pressure (altimeter):30.30 inches Hg (1026.2 mb) [Sea level pressure: 1026.9 mb]
Winds:from the ESE (120 degrees) at 7 MPH (6 knots; 3.1 m/s)
Visibility:10 or more sm (16+ km)
Ceiling:at least 12,000 feet AGL
Clouds:sky clear below 12,000 feet AGL
QC Flag:automated observation with no human augmentation
Text:KSNS 120853Z AUTO 09003KT 10SM CLR 07/M05 A3030 RMK AO2 SLP270 T00671050 50002
Temperature: 6.7°C ( 44°F)
Dewpoint: -5.0°C ( 23°F) [RH = 43%]
Pressure (altimeter):30.30 inches Hg (1026.2 mb) [Sea level pressure: 1027.0 mb]
Winds:from the E (90 degrees) at 3 MPH (3 knots; 1.5 m/s)
Visibility:10 or more sm (16+ km)
Ceiling:at least 12,000 feet AGL
Clouds:sky clear below 12,000 feet AGL
QC Flag:automated observation with no human augmentation
Text:KSNS 120753Z AUTO 00000KT 10SM CLR 08/M05 A3031 RMK AO2 SLP271 T00781050 402500067
Temperature: 7.8°C ( 46°F)
Dewpoint: -5.0°C ( 23°F) [RH = 40%]
Pressure (altimeter):30.31 inches Hg (1026.5 mb) [Sea level pressure: 1027.1 mb]
Winds:calm
Visibility:10 or more sm (16+ km)
Ceiling:at least 12,000 feet AGL
Clouds:sky clear below 12,000 feet AGL
QC Flag:automated observation with no human augmentation
Text:KSNS 120653Z AUTO 14006KT 10SM CLR 10/M04 A3030 RMK AO2 SLP269 T01001044
Temperature: 10.0°C ( 50°F)
Dewpoint: -4.4°C ( 24°F) [RH = 36%]
Pressure (altimeter):30.30 inches Hg (1026.2 mb) [Sea level pressure: 1026.9 mb]
Winds:from the SE (140 degrees) at 7 MPH (6 knots; 3.1 m/s)
Visibility:10 or more sm (16+ km)
Ceiling:at least 12,000 feet AGL
Clouds:sky clear below 12,000 feet AGL
QC Flag:automated observation with no human augmentation